Time;durP1;ratioP1;P1;durP2;ratioP2;P2;SDS_P1;SDS_P2;PMS_P1;PMS_P2;Temp;Humidity;BMP_temperature;BMP_pressure;BME280_temperature;BME280_humidity;BME280_pressure;Samples;Min_cycle;Max_cycle;Signal;HPM_P1;HPM_P2
2023/09/11 05:05:41;;;;;;;;;;;;;;;;;;4582844;23;19939;-86
2023/09/11 05:08:07;;;;;;;;;;;;;;;;;;5011533;28;19926;-90
2023/09/11 05:10:33;;;;;;;;;;;;;;;;;;4996571;28;19939;-90
2023/09/11 05:12:59;;;;;;;;;;;;;;;;;;5004422;28;19916;-90
2023/09/11 05:15:25;;;;;;;;;;;;;;;;;;5005398;28;19909;-90
2023/09/11 05:17:51;;;;;;;;;;;;;;;;;;5010755;28;19913;-90
2023/09/11 05:20:16;;;;;;;;;;;;;;;;;;5005477;28;20260;-91
2023/09/11 05:22:42;;;;;;;;;;;;;;;;;;5010735;28;20393;-91
2023/09/11 05:25:08;;;;;;;;;;;;;;;;;;5001860;28;19914;-89
2023/09/11 05:32:55;;;;;;;;;;;;;;;;;;5027709;23;19932;-90
2023/09/11 05:35:21;;;;;;;;;;;;;;;;;;4999502;28;20293;-91
2023/09/11 05:41:24;;;;;;;;;;;;;;;;;;;;;
2023/09/11 05:43:21;;;;;;;;;;;;;;;;;;5009622;28;20294;-95
2023/09/11 05:48:39;;;;;;;;;;;;;;;;;;5017443;28;20450;-96
2023/09/11 05:51:05;;;;;;;;;;;;;;;;;;5001491;28;19909;-95
2023/09/11 05:53:31;;;;;;;;;;;;;;;;;;5002919;28;19921;-96
2023/09/11 05:56:00;;;;;;;;;;;;;;;;;;5000507;28;20275;-95
2023/09/11 05:58:26;;;;;;;;;;;;;;;;;;5002151;28;19964;-96
2023/09/11 06:00:55;;;;;;;;;;;;;;;;;;5026698;28;19909;-96
2023/09/11 06:03:21;;;;;;;;;;;;;;;;;;5005231;28;19968;-96
2023/09/11 06:05:59;;;;;;;;;;;;;;;;;;5011665;28;19913;-96
2023/09/11 06:08:25;;;;;;;;;;;;;;;;;;5010016;28;19959;-96
2023/09/11 06:10:52;;;;;;;;;;;;;;;;;;5002361;28;19914;-96
2023/09/11 06:13:18;;;;;;;;;;;;;;;;;;5002951;28;20033;-96
2023/09/11 06:15:44;;;;;;;;;;;;;;;;;;4999458;28;19949;-95
2023/09/11 06:18:10;;;;;;;;;;;;;;;;;;4999982;28;20381;-95
2023/09/11 06:20:38;;;;;;;;;;;;;;;;;;5000076;28;20031;-96
2023/09/11 06:23:08;;;;;;;;;;;;;;;;;;5019001;28;20306;-96
2023/09/11 06:25:36;;;;;;;;;;;;;;;;;;5004027;28;19917;-96
2023/09/11 06:28:03;;;;;;;;;;;;;;;;;;5023865;28;19913;-96
2023/09/11 06:30:29;;;;;;;;;;;;;;;;;;5011459;28;20378;-96
2023/09/11 06:33:00;;;;;;;;;;;;;;;;;;5005634;28;19921;-96
2023/09/11 06:35:26;;;;;;;;;;;;;;;;;;4998353;28;19917;-94
2023/09/11 06:37:52;;;;;;;;;;;;;;;;;;4998365;28;19910;-96
2023/09/11 06:40:21;;;;;;;;;;;;;;;;;;5001720;28;20366;-95
2023/09/11 06:42:48;;;;;;;;;;;;;;;;;;5002429;28;19918;-96
2023/09/11 06:45:14;;;;;;;;;;;;;;;;;;5002712;28;19910;-96
2023/09/11 06:47:44;;;;;;;;;;;;;;;;;;4997354;28;19910;-96
2023/09/11 06:50:11;;;;;;;;;;;;;;;;;;5000667;28;20024;-95
2023/09/11 06:52:40;;;;;;;;;;;;;;;;;;5254663;23;19986;-92
2023/09/11 06:55:06;;;;;;;;;;;;;;;;;;5014727;28;20008;-92
2023/09/11 06:57:32;;;;;;;;;;;;;;;;;;5003157;28;19972;-92
2023/09/11 07:00:10;;;;;;;;;;;;;;;;;;4994960;28;19910;-93
2023/09/11 07:02:44;;;;;;;;;;;;;;;;;;4995463;28;20005;-92
2023/09/11 07:05:10;;;;;;;;;;;;;;;;;;5003610;28;19920;-92
2023/09/11 07:07:36;;;;;;;;;;;;;;;;;;5001602;28;19914;-91
2023/09/11 07:10:03;;;;;;;;;;;;;;;;;;5003662;28;19910;-91
2023/09/11 07:12:29;;;;;;;;;;;;;;;;;;5008994;28;19910;-92
2023/09/11 07:14:58;;;;;;;;;;;;;;;;;;4999806;28;20009;-92
2023/09/11 07:17:24;;;;;;;;;;;;;;;;;;4997914;28;19953;-93
2023/09/11 07:19:50;;;;;;;;;;;;;;;;;;5004935;28;19948;-91
2023/09/11 07:22:16;;;;;;;;;;;;;;;;;;4999877;28;19920;-93
2023/09/11 07:24:45;;;;;;;;;;;;;;;;;;5003089;28;19913;-92
2023/09/11 07:27:14;;;;;;;;;;;;;;;;;;5003000;28;20394;-93
2023/09/11 07:29:40;;;;;;;;;;;;;;;;;;5007500;28;19920;-92
2023/09/11 07:32:06;;;;;;;;;;;;;;;;;;4999948;28;19910;-93
2023/09/11 07:34:32;;;;;;;;;;;;;;;;;;5005555;28;20382;-92
2023/09/11 07:37:03;;;;;;;;;;;;;;;;;;5005182;28;19909;-93
2023/09/11 07:39:32;;;;;;;;;;;;;;;;;;5005333;28;19917;-92
2023/09/11 07:41:58;;;;;;;;;;;;;;;;;;5002872;28;20057;-93
2023/09/11 07:44:24;;;;;;;;;;;;;;;;;;5005732;28;19971;-92
2023/09/11 07:46:52;;;;;;;;;;;;;;;;;;5008976;28;19980;-93
2023/09/11 07:49:18;;;;;;;;;;;;;;;;;;4996381;28;19961;-92
2023/09/11 07:51:50;;;;;;;;;;;;;;;;;;4996250;28;19921;-91
2023/09/11 07:54:21;;;;;;;;;;;;;;;;;;5003732;28;19929;-92
2023/09/11 07:56:46;;;;;;;;;;;;;;;;;;4996798;28;19969;-92
2023/09/11 07:59:12;;;;;;;;;;;;;;;;;;5009033;28;19913;-93
2023/09/11 08:01:41;;;;;;;;;;;;;;;;;;4999213;28;19920;-93
2023/09/11 08:04:11;;;;;;;;;;;;;;;;;;5002746;28;19918;-92
2023/09/11 08:06:38;;;;;;;;;;;;;;;;;;5009702;28;19936;-92
2023/09/11 08:09:05;;;;;;;;;;;;;;;;;;5001878;28;19936;-92
2023/09/11 08:11:39;;;;;;;;;;;;;;;;;;5008700;28;19910;-94
2023/09/11 08:14:08;;;;;;;;;;;;;;;;;;5012220;28;19909;-92
2023/09/11 08:19:32;;;;;;;;;;;;;;;;;;4979609;28;20318;-93
2023/09/11 08:21:58;;;;;;;;;;;;;;;;;;4961134;28;19918;-92
2023/09/11 08:24:24;;;;;;;;;;;;;;;;;;5002641;28;19921;-90
2023/09/11 08:26:52;;;;;;;;;;;;;;;;;;5009700;28;19913;-94
2023/09/11 08:29:18;;;;;;;;;;;;;;;;;;5000299;28;19929;-93
2023/09/11 08:31:43;;;;;;;;;;;;;;;;;;5003234;28;19996;-92
2023/09/11 08:34:09;;;;;;;;;;;;;;;;;;5001954;28;20363;-91
2023/09/11 08:36:35;;;;;;;;;;;;;;;;;;4983974;28;20295;-91
2023/09/11 08:39:02;;;;;;;;;;;;;;;;;;5001900;28;20385;-87
2023/09/11 08:41:28;;;;;;;;;;;;;;;;;;4992672;28;19913;-90
2023/09/11 08:44:00;;;;;;;;;;;;;;;;;;5000335;28;19922;-90
2023/09/11 08:46:25;;;;;;;;;;;;;;;;;;4999941;28;20326;-89
2023/09/11 08:48:51;;;;;;;;;;;;;;;;;;5004454;28;19920;-91
2023/09/11 08:51:17;;;;;;;;;;;;;;;;;;4996770;28;20366;-88
2023/09/11 08:56:42;;;;;;;;;;;;;;;;;;4978851;28;20015;-95
2023/09/11 08:59:30;;;;;;;;;;;;;;;;;;;;;
2023/09/11 09:02:12;;;;;;;;;;;;;;;;;;;;;
2023/09/11 09:21:54;;;;;;;;;;;;;;;;;;4923684;29;20427;-96
2023/09/11 09:32:34;;;;;;;;;;;;;;;;;;5039364;28;20369;-95
2023/09/11 09:35:09;;;;;;;;;;;;;;;;;;5036410;28;20004;-96
2023/09/11 09:37:48;;;;;;;;;;;;;;;;;;;;;
2023/09/11 09:43:10;;;;;;;;;;;;;;;;;;;;;
2023/09/11 09:53:58;;;;;;;;;;;;;;;;;;5354230;23;19926;-96
2023/09/11 09:56:24;;;;;;;;;;;;;;;;;;4983177;28;19988;-94
2023/09/11 10:12:45;;;;;;;;;;;;;;;;;;4910875;29;20002;-95
2023/09/11 10:15:14;;;;;;;;;;;;;;;;;;4906259;29;19942;-95
2023/09/11 10:17:40;;;;;;;;;;;;;;;;;;4910552;29;19970;-95
2023/09/11 10:23:09;;;;;;;;;;;;;;;;;;4910811;29;19989;-96
2023/09/11 10:28:34;;;;;;;;;;;;;;;;;;4899813;29;19919;-94
2023/09/11 10:31:00;;;;;;;;;;;;;;;;;;4906617;29;20432;-93
2023/09/11 10:33:26;;;;;;;;;;;;;;;;;;4910076;29;19954;-94
2023/09/11 10:35:52;;;;;;;;;;;;;;;;;;4908206;29;19912;-96
2023/09/11 10:44:09;;;;;;;;;;;;;;;;;;4901643;29;19959;-95
2023/09/11 10:46:38;;;;;;;;;;;;;;;;;;4909913;29;19915;-95
2023/09/11 10:52:05;;;;;;;;;;;;;;;;;;4871223;29;19919;-95
2023/09/11 10:54:42;;;;;;;;;;;;;;;;;;;;;
2023/09/11 11:05:36;;;;;;;;;;;;;;;;;;;;;
2023/09/11 11:11:28;;;;;;;;;;;;;;;;;;;;;
2023/09/11 11:16:41;;;;;;;;;;;;;;;;;;4803413;29;20296;-95
2023/09/11 11:21:58;;;;;;;;;;;;;;;;;;4802370;29;19919;-96
2023/09/11 11:27:29;;;;;;;;;;;;;;;;;;4817364;29;19912;-95
2023/09/11 11:41:37;;;;;;;;;;;;;;;;;;4894739;29;20373;-95
2023/09/11 11:47:10;;;;;;;;;;;;;;;;;;4899306;29;19919;-95
2023/09/11 12:04:04;;;;;;;;;;;;;;;;;;;;;
2023/09/11 12:06:49;;;;;;;;;;;;;;;;;;;;;
2023/09/11 12:09:25;;;;;;;;;;;;;;;;;;4860306;29;20010;-94
2023/09/11 12:11:54;;;;;;;;;;;;;;;;;;4899419;29;19919;-95
2023/09/11 12:14:20;;;;;;;;;;;;;;;;;;4891411;29;20385;-94
2023/09/11 12:16:56;;;;;;;;;;;;;;;;;;;;;
2023/09/11 12:22:11;;;;;;;;;;;;;;;;;;4955568;29;19923;-95
2023/09/11 12:24:40;;;;;;;;;;;;;;;;;;4941074;29;19937;-94
2023/09/11 12:27:17;;;;;;;;;;;;;;;;;;4933653;29;19926;-96
2023/09/11 12:30:05;;;;;;;;;;;;;;;;;;4939001;29;21513;-96
2023/09/11 12:35:15;;;;;;;;;;;;;;;;;;4954193;29;20442;-96
2023/09/11 12:37:58;;;;;;;;;;;;;;;;;;4959628;29;20331;-96
2023/09/11 12:40:34;;;;;;;;;;;;;;;;;;4972726;28;19910;-94
2023/09/11 12:43:07;;;;;;;;;;;;;;;;;;4977113;28;19918;-93
2023/09/11 12:45:34;;;;;;;;;;;;;;;;;;4980973;28;19965;-94
2023/09/11 12:47:59;;;;;;;;;;;;;;;;;;4996339;28;19933;-95
2023/09/11 13:01:32;;;;;;;;;;;;;;;;;;4985376;28;19921;-92
2023/09/11 13:04:12;;;;;;;;;;;;;;;;;;4980557;28;20458;-92
2023/09/11 13:06:38;;;;;;;;;;;;;;;;;;4966449;28;19941;-91
2023/09/11 13:09:05;;;;;;;;;;;;;;;;;;4988873;28;20406;-91
2023/09/11 13:11:31;;;;;;;;;;;;;;;;;;4985439;28;19948;-90
2023/09/11 13:13:57;;;;;;;;;;;;;;;;;;4963951;28;20374;-91
2023/09/11 13:16:26;;;;;;;;;;;;;;;;;;4982444;28;19910;-93
2023/09/11 13:18:58;;;;;;;;;;;;;;;;;;4969591;28;19914;-91
2023/09/11 13:21:33;;;;;;;;;;;;;;;;;;4983026;28;19946;-96
2023/09/11 13:23:59;;;;;;;;;;;;;;;;;;4977433;28;19958;-92
2023/09/11 13:26:25;;;;;;;;;;;;;;;;;;4977314;28;20260;-92
2023/09/11 13:28:54;;;;;;;;;;;;;;;;;;4977945;28;19914;-93
2023/09/11 13:31:24;;;;;;;;;;;;;;;;;;4979733;28;19914;-95
2023/09/11 13:33:54;;;;;;;;;;;;;;;;;;4974210;28;19914;-92
2023/09/11 13:36:20;;;;;;;;;;;;;;;;;;4961043;28;20005;-96
2023/09/11 13:38:46;;;;;;;;;;;;;;;;;;4960699;28;20351;-94
2023/09/11 13:41:18;;;;;;;;;;;;;;;;;;4976728;28;20264;-92
2023/09/11 13:43:44;;;;;;;;;;;;;;;;;;4979293;28;19933;-92
2023/09/11 13:46:10;;;;;;;;;;;;;;;;;;4983308;28;19913;-93
2023/09/11 13:48:36;;;;;;;;;;;;;;;;;;4960969;28;19916;-93
2023/09/11 13:51:02;;;;;;;;;;;;;;;;;;4976499;28;19938;-92
2023/09/11 13:53:31;;;;;;;;;;;;;;;;;;4976459;28;19910;-93
2023/09/11 13:55:57;;;;;;;;;;;;;;;;;;4979486;28;19950;-92
2023/09/11 13:58:23;;;;;;;;;;;;;;;;;;4980615;28;20281;-93
2023/09/11 14:00:52;;;;;;;;;;;;;;;;;;4980331;28;20409;-94
2023/09/11 14:03:18;;;;;;;;;;;;;;;;;;4981366;28;19957;-94
2023/09/11 14:11:15;;;;;;;;;;;;;;;;;;4998204;28;19965;-93
2023/09/11 14:13:41;;;;;;;;;;;;;;;;;;4991496;28;19975;-94
2023/09/11 14:16:07;;;;;;;;;;;;;;;;;;4999023;28;19910;-93
2023/09/11 14:18:33;;;;;;;;;;;;;;;;;;4999263;28;20393;-92
2023/09/11 14:20:59;;;;;;;;;;;;;;;;;;5001638;28;19910;-94
2023/09/11 14:23:25;;;;;;;;;;;;;;;;;;4999049;28;20051;-93
2023/09/11 14:25:54;;;;;;;;;;;;;;;;;;5000186;28;19913;-93
2023/09/11 14:28:23;;;;;;;;;;;;;;;;;;4998830;28;20343;-93
2023/09/11 14:30:49;;;;;;;;;;;;;;;;;;4998688;28;19921;-91
2023/09/11 14:33:15;;;;;;;;;;;;;;;;;;4998789;28;19910;-93
2023/09/11 14:35:41;;;;;;;;;;;;;;;;;;4998480;28;20003;-94
2023/09/11 14:38:07;;;;;;;;;;;;;;;;;;4999042;28;19913;-92
2023/09/11 14:40:33;;;;;;;;;;;;;;;;;;4999239;28;19964;-94
2023/09/11 14:42:59;;;;;;;;;;;;;;;;;;4998828;28;19924;-92
2023/09/11 14:45:25;;;;;;;;;;;;;;;;;;4980034;28;19952;-93
2023/09/11 14:47:51;;;;;;;;;;;;;;;;;;4979141;28;19914;-93
2023/09/11 14:50:17;;;;;;;;;;;;;;;;;;4979703;28;19914;-93
2023/09/11 14:52:43;;;;;;;;;;;;;;;;;;4979312;28;19980;-94
2023/09/11 14:55:09;;;;;;;;;;;;;;;;;;4978082;28;19928;-93
2023/09/11 14:57:35;;;;;;;;;;;;;;;;;;4979017;28;19910;-92
2023/09/11 15:00:01;;;;;;;;;;;;;;;;;;4978933;28;19913;-93
2023/09/11 15:02:30;;;;;;;;;;;;;;;;;;4978969;28;19940;-94
2023/09/11 15:04:57;;;;;;;;;;;;;;;;;;4979711;28;19914;-92
2023/09/11 15:07:29;;;;;;;;;;;;;;;;;;4978667;28;20008;-93
2023/09/11 15:09:55;;;;;;;;;;;;;;;;;;4959814;28;19914;-93
2023/09/11 15:12:21;;;;;;;;;;;;;;;;;;4959777;28;19917;-94
2023/09/11 15:14:47;;;;;;;;;;;;;;;;;;4960851;28;19914;-92
2023/09/11 15:17:16;;;;;;;;;;;;;;;;;;4965714;28;20021;-92
2023/09/11 15:19:42;;;;;;;;;;;;;;;;;;4959177;28;19925;-96
2023/09/11 15:22:08;;;;;;;;;;;;;;;;;;4960000;28;19918;-92
2023/09/11 15:24:34;;;;;;;;;;;;;;;;;;4958950;28;19910;-93
2023/09/11 15:27:03;;;;;;;;;;;;;;;;;;4959481;28;19933;-94
2023/09/11 15:29:29;;;;;;;;;;;;;;;;;;4960303;28;19910;-96
2023/09/11 15:31:55;;;;;;;;;;;;;;;;;;4960018;28;19965;-93
2023/09/11 15:34:21;;;;;;;;;;;;;;;;;;4966016;28;19918;-95
2023/09/11 15:36:51;;;;;;;;;;;;;;;;;;4995714;28;19918;-96
2023/09/11 15:39:17;;;;;;;;;;;;;;;;;;4961345;28;19949;-94
2023/09/11 15:41:43;;;;;;;;;;;;;;;;;;4965932;28;19921;-93
2023/09/11 15:44:09;;;;;;;;;;;;;;;;;;4980444;28;19921;-94
2023/09/11 15:46:35;;;;;;;;;;;;;;;;;;4985808;28;19909;-93
2023/09/11 15:49:01;;;;;;;;;;;;;;;;;;4987784;28;20315;-93
2023/09/11 15:51:27;;;;;;;;;;;;;;;;;;4964214;28;19918;-94
2023/09/11 15:53:53;;;;;;;;;;;;;;;;;;4967249;28;20362;-93
2023/09/11 15:56:19;;;;;;;;;;;;;;;;;;4968010;28;20283;-92
2023/09/11 15:58:46;;;;;;;;;;;;;;;;;;4958805;28;19989;-92
2023/09/11 16:01:12;;;;;;;;;;;;;;;;;;4973044;28;19914;-92
2023/09/11 16:03:38;;;;;;;;;;;;;;;;;;4978057;28;19922;-93
2023/09/11 16:06:04;;;;;;;;;;;;;;;;;;4977907;28;19910;-92
2023/09/11 16:08:30;;;;;;;;;;;;;;;;;;4972936;28;19910;-91
2023/09/11 16:11:01;;;;;;;;;;;;;;;;;;4958810;28;20394;-92
2023/09/11 16:13:27;;;;;;;;;;;;;;;;;;4958906;28;19911;-93
2023/09/11 16:15:53;;;;;;;;;;;;;;;;;;4958658;28;20381;-93
2023/09/11 16:18:19;;;;;;;;;;;;;;;;;;4958409;28;19910;-92
2023/09/11 16:20:45;;;;;;;;;;;;;;;;;;4961970;28;19910;-93
2023/09/11 16:23:13;;;;;;;;;;;;;;;;;;4962363;28;19922;-93
2023/09/11 16:25:39;;;;;;;;;;;;;;;;;;4967823;28;19964;-94
2023/09/11 16:28:08;;;;;;;;;;;;;;;;;;4981455;28;19910;-92
2023/09/11 16:30:34;;;;;;;;;;;;;;;;;;4981538;28;19945;-94
2023/09/11 16:33:02;;;;;;;;;;;;;;;;;;4981379;28;19917;-93
2023/09/11 16:35:29;;;;;;;;;;;;;;;;;;4981576;28;19916;-96
2023/09/11 16:37:55;;;;;;;;;;;;;;;;;;4977934;28;19909;-93
2023/09/11 16:40:21;;;;;;;;;;;;;;;;;;4972363;28;20485;-92
2023/09/11 16:42:47;;;;;;;;;;;;;;;;;;4972157;28;20001;-92
2023/09/11 16:45:13;;;;;;;;;;;;;;;;;;4972359;28;19921;-91
2023/09/11 16:47:39;;;;;;;;;;;;;;;;;;4970368;28;19910;-92
2023/09/11 16:50:05;;;;;;;;;;;;;;;;;;4970003;28;19917;-92
2023/09/11 16:52:31;;;;;;;;;;;;;;;;;;4970731;28;20376;-92
2023/09/11 16:54:57;;;;;;;;;;;;;;;;;;4969752;28;19925;-92
2023/09/11 16:57:23;;;;;;;;;;;;;;;;;;4980963;28;19910;-93
2023/09/11 16:59:50;;;;;;;;;;;;;;;;;;4999402;28;20359;-92
2023/09/11 17:02:19;;;;;;;;;;;;;;;;;;4976468;28;19929;-93
2023/09/11 17:04:44;;;;;;;;;;;;;;;;;;4976124;28;19910;-92
2023/09/11 17:07:10;;;;;;;;;;;;;;;;;;4977310;28;19915;-92
2023/09/11 17:09:39;;;;;;;;;;;;;;;;;;4973029;28;19945;-95
2023/09/11 17:12:05;;;;;;;;;;;;;;;;;;4981451;28;19914;-94
2023/09/11 17:17:17;;;;;;;;;;;;;;;;;;4984034;28;19997;-94
2023/09/11 17:19:46;;;;;;;;;;;;;;;;;;4981146;28;19945;-94
2023/09/11 17:25:11;;;;;;;;;;;;;;;;;;4999398;28;20029;-96
2023/09/11 17:27:50;;;;;;;;;;;;;;;;;;;;;
2023/09/11 17:33:13;;;;;;;;;;;;;;;;;;5000394;28;19976;-96
2023/09/11 17:35:48;;;;;;;;;;;;;;;;;;4983511;28;19914;-96
